Time;durP1;ratioP1;P1;durP2;ratioP2;P2;SDS_P1;SDS_P2;PMS_P1;PMS_P2;Temp;Humidity;BMP_temperature;BMP_pressure;BME280_temperature;BME280_humidity;BME280_pressure;Samples;Min_cycle;Max_cycle;Signal;HPM_P1;HPM_P2
2021/03/30 00:00:37;;;;;;;8.25;3.80;;;9.90;91.20;;;;;;5072329;28;20025;-78
2021/03/30 00:03:03;;;;;;;7.15;3.30;;;9.90;91.20;;;;;;5092356;28;20522;-79
2021/03/30 00:05:28;;;;;;;8.63;3.40;;;9.90;91.40;;;;;;5093881;28;20056;-79
2021/03/30 00:07:54;;;;;;;7.15;3.00;;;9.80;91.60;;;;;;5075536;28;20168;-80
2021/03/30 00:10:23;;;;;;;11.73;3.88;;;9.80;91.80;;;;;;5075682;28;20031;-80
2021/03/30 00:12:49;;;;;;;7.07;4.07;;;9.80;91.60;;;;;;5075639;28;20114;-79
2021/03/30 00:15:15;;;;;;;12.32;4.47;;;9.80;91.60;;;;;;5075594;28;20056;-80
2021/03/30 00:17:41;;;;;;;6.03;3.75;;;9.80;91.60;;;;;;5075188;28;20430;-85
2021/03/30 00:20:09;;;;;;;9.25;4.22;;;9.80;91.70;;;;;;5075446;28;20024;-78
2021/03/30 00:22:35;;;;;;;11.70;3.70;;;9.80;91.90;;;;;;5093623;28;20020;-79
2021/03/30 00:25:01;;;;;;;7.38;3.33;;;9.80;92.50;;;;;;5093640;28;20043;-78
2021/03/30 00:27:26;;;;;;;8.65;3.28;;;9.80;92.40;;;;;;5075221;28;20020;-78
2021/03/30 00:29:52;;;;;;;14.27;4.35;;;9.80;92.80;;;;;;5075294;28;20024;-78
2021/03/30 00:32:18;;;;;;;12.27;4.10;;;9.70;92.30;;;;;;5075350;28;20463;-78
2021/03/30 00:34:43;;;;;;;9.90;3.85;;;9.80;92.00;;;;;;5075043;28;20028;-79
2021/03/30 00:37:09;;;;;;;7.35;3.45;;;9.80;92.10;;;;;;5075342;28;20031;-79
2021/03/30 00:39:34;;;;;;;6.18;3.20;;;9.80;92.30;;;;;;5093659;28;20081;-83
2021/03/30 00:42:00;;;;;;;9.90;3.05;;;9.80;92.40;;;;;;5075045;28;20078;-78
2021/03/30 00:44:26;;;;;;;7.85;3.30;;;9.80;92.60;;;;;;5075105;28;20060;-78
2021/03/30 00:46:52;;;;;;;8.43;2.80;;;9.70;92.60;;;;;;5093329;28;20445;-78
2021/03/30 00:49:21;;;;;;;4.00;2.58;;;9.70;93.00;;;;;;5093315;28;20466;-78
2021/03/30 00:51:48;;;;;;;8.63;3.38;;;9.70;93.10;;;;;;5074963;28;20031;-79
2021/03/30 00:54:15;;;;;;;5.93;2.60;;;9.70;93.30;;;;;;5074895;28;20387;-88
2021/03/30 00:56:44;;;;;;;7.53;3.00;;;9.60;93.30;;;;;;5074981;28;20020;-78
2021/03/30 00:59:12;;;;;;;5.95;2.58;;;9.60;92.90;;;;;;5093019;28;20095;-80
2021/03/30 01:01:37;;;;;;;6.03;2.70;;;9.60;93.00;;;;;;5074718;28;20074;-79
2021/03/30 01:04:03;;;;;;;9.57;3.03;;;9.60;93.50;;;;;;5074711;28;20023;-79
2021/03/30 01:06:30;;;;;;;4.55;2.35;;;9.50;93.60;;;;;;5074733;28;20487;-79
2021/03/30 01:09:21;;;;;;;5.72;2.88;;;9.60;93.70;;;;;;5092793;28;20074;-78
2021/03/30 01:12:07;;;;;;;4.70;2.65;;;9.50;93.40;;;;;;5061500;28;20364;-80
2021/03/30 01:14:46;;;;;;;8.68;2.70;;;9.50;93.80;;;;;;5074510;28;20475;-78
2021/03/30 01:17:27;;;;;;;5.28;2.55;;;9.40;93.80;;;;;;5074272;28;20032;-79
2021/03/30 01:19:58;;;;;;;5.15;2.78;;;9.40;93.80;;;;;;5092630;28;20055;-79
2021/03/30 01:22:36;;;;;;;6.65;2.95;;;9.40;93.70;;;;;;5074443;28;20036;-79
2021/03/30 01:25:03;;;;;;;7.10;2.60;;;9.40;94.00;;;;;;5074372;28;20074;-78
2021/03/30 01:27:47;;;;;;;5.82;2.83;;;9.40;94.50;;;;;;5092434;28;20063;-79
2021/03/30 01:30:15;;;;;;;6.78;3.08;;;9.30;94.40;;;;;;5074346;28;20107;-83
2021/03/30 01:33:04;;;;;;;7.75;2.95;;;9.30;94.50;;;;;;5074506;28;20024;-79
2021/03/30 01:35:31;;;;;;;7.47;3.28;;;9.20;94.50;;;;;;5074798;28;20024;-79
2021/03/30 01:37:57;;;;;;;7.55;3.25;;;9.20;94.70;;;;;;5092278;28;20099;-78
2021/03/30 01:40:29;;;;;;;10.30;3.70;;;9.20;94.60;;;;;;5074562;28;20028;-78
2021/03/30 01:42:56;;;;;;;7.85;3.45;;;9.20;94.70;;;;;;5076277;28;20019;-78
2021/03/30 01:45:23;;;;;;;7.82;4.00;;;9.10;95.00;;;;;;5078530;28;20020;-78
2021/03/30 01:47:51;;;;;;;10.10;3.85;;;9.00;95.20;;;;;;5096403;28;20133;-79
2021/03/30 01:50:17;;;;;;;6.90;4.10;;;9.00;95.20;;;;;;5078233;28;20070;-79
2021/03/30 01:52:44;;;;;;;8.27;3.97;;;9.00;95.20;;;;;;5096320;28;20063;-80
2021/03/30 01:55:13;;;;;;;8.75;4.00;;;8.90;95.20;;;;;;5078227;28;20024;-78
2021/03/30 01:57:40;;;;;;;11.38;4.85;;;8.90;95.10;;;;;;5078413;28;20024;-78
2021/03/30 02:00:10;;;;;;;8.30;4.32;;;8.90;94.90;;;;;;5078269;28;20028;-77
2021/03/30 02:02:36;;;;;;;7.30;4.05;;;8.80;95.00;;;;;;5078030;28;20044;-79
2021/03/30 02:05:04;;;;;;;7.63;3.08;;;8.80;95.20;;;;;;5078270;28;20028;-78
2021/03/30 02:07:30;;;;;;;6.47;3.75;;;8.80;95.10;;;;;;5077726;28;20016;-79
2021/03/30 02:10:00;;;;;;;5.53;3.25;;;8.80;94.90;;;;;;5078360;28;20483;-79
2021/03/30 02:12:35;;;;;;;8.98;3.70;;;8.70;95.20;;;;;;5077502;28;20020;-78
2021/03/30 02:15:01;;;;;;;6.20;3.00;;;8.80;95.20;;;;;;5077942;28;20036;-78
2021/03/30 02:17:39;;;;;;;7.78;3.15;;;8.80;95.30;;;;;;5096014;28;20017;-79
2021/03/30 02:20:19;;;;;;;5.55;2.80;;;8.70;95.50;;;;;;5077832;28;20031;-78
2021/03/30 02:23:14;;;;;;;6.30;2.80;;;8.70;95.80;;;;;;5095744;28;20016;-79
2021/03/30 02:25:41;;;;;;;7.75;2.30;;;8.70;96.10;;;;;;5077398;28;20481;-78
2021/03/30 02:28:12;;;;;;;4.50;2.40;;;8.60;96.20;;;;;;5077238;28;20475;-78
2021/03/30 02:30:39;;;;;;;6.88;2.67;;;8.60;96.10;;;;;;5077356;28;20018;-78
2021/03/30 02:33:07;;;;;;;4.97;2.78;;;8.60;96.10;;;;;;5077397;28;20042;-79
2021/03/30 02:35:34;;;;;;;6.00;2.30;;;8.60;96.30;;;;;;5077463;28;20028;-78
2021/03/30 02:38:04;;;;;;;5.20;2.45;;;8.50;96.40;;;;;;5077478;28;20035;-79
2021/03/30 02:40:30;;;;;;;5.82;2.63;;;8.50;96.50;;;;;;5077257;28;20023;-78
2021/03/30 02:42:58;;;;;;;5.03;2.58;;;8.50;96.40;;;;;;5095237;28;20035;-78
2021/03/30 02:45:26;;;;;;;11.50;7.50;;;8.50;96.40;;;;;;5077326;28;20039;-78
2021/03/30 02:47:56;;;;;;;11.38;5.65;;;8.40;96.30;;;;;;5095310;28;20031;-79
2021/03/30 02:50:22;;;;;;;9.63;3.63;;;8.50;96.10;;;;;;5077066;28;20028;-78
2021/03/30 02:52:48;;;;;;;9.05;3.38;;;8.50;96.20;;;;;;5076996;28;20032;-78
2021/03/30 02:55:14;;;;;;;8.73;3.28;;;8.60;96.10;;;;;;5076217;28;20474;-79
2021/03/30 02:57:41;;;;;;;7.60;3.70;;;8.60;96.30;;;;;;5077289;28;20035;-78
2021/03/30 03:00:12;;;;;;;7.72;3.60;;;8.60;96.10;;;;;;5076975;28;20054;-79
2021/03/30 03:02:38;;;;;;;7.70;3.45;;;8.50;96.30;;;;;;5094803;28;20076;-79
2021/03/30 03:05:07;;;;;;;9.45;3.72;;;8.60;96.20;;;;;;5076902;28;20117;-80
2021/03/30 03:07:33;;;;;;;8.23;3.72;;;8.50;96.30;;;;;;5094793;28;20016;-79
2021/03/30 03:10:03;;;;;;;10.68;3.88;;;8.50;96.20;;;;;;5076827;28;20081;-79
2021/03/30 03:12:35;;;;;;;8.30;3.67;;;8.50;96.20;;;;;;5076548;28;20398;-79
2021/03/30 03:15:03;;;;;;;7.78;2.72;;;8.40;96.30;;;;;;5076714;28;20070;-84
2021/03/30 03:17:30;;;;;;;5.90;3.22;;;8.40;96.40;;;;;;5076361;28;20035;-78
2021/03/30 03:19:56;;;;;;;4.43;2.60;;;8.30;96.60;;;;;;5076637;28;20081;-79
2021/03/30 03:22:23;;;;;;;4.00;2.55;;;8.30;96.60;;;;;;5076501;28;20073;-79
2021/03/30 03:24:51;;;;;;;7.63;2.90;;;8.10;96.70;;;;;;5076394;28;20051;-78
2021/03/30 03:27:20;;;;;;;8.90;3.75;;;8.10;97.00;;;;;;5076540;28;20051;-79
2021/03/30 03:29:46;;;;;;;10.23;3.67;;;8.00;96.70;;;;;;5094359;28;20024;-81
2021/03/30 03:32:11;;;;;;;7.60;3.67;;;8.10;97.10;;;;;;5076107;28;20031;-79
2021/03/30 03:34:37;;;;;;;8.55;3.45;;;8.10;97.20;;;;;;5076164;28;20424;-79
2021/03/30 03:37:04;;;;;;;13.05;4.60;;;7.90;97.00;;;;;;5094420;28;20046;-78
2021/03/30 03:39:29;;;;;;;10.93;4.30;;;7.80;97.10;;;;;;5094291;28;20028;-79
2021/03/30 03:41:55;;;;;;;10.52;4.28;;;7.90;96.90;;;;;;5076170;28;20383;-78
2021/03/30 03:44:24;;;;;;;10.85;7.63;;;7.70;97.00;;;;;;5076419;28;20119;-79
2021/03/30 03:46:50;;;;;;;12.20;5.95;;;7.60;97.20;;;;;;5076273;28;20123;-79
2021/03/30 03:49:16;;;;;;;6.13;4.30;;;7.50;97.30;;;;;;5076248;28;20103;-78
2021/03/30 03:51:50;;;;;;;8.95;4.07;;;7.50;97.60;;;;;;5094651;28;20459;-87
2021/03/30 03:54:19;;;;;;;8.05;4.70;;;7.40;97.70;;;;;;5094073;28;20075;-78
2021/03/30 03:56:53;;;;;;;10.13;4.05;;;7.40;98.00;;;;;;5075862;28;20028;-78
2021/03/30 03:59:25;;;;;;;9.00;3.80;;;7.40;98.00;;;;;;5094125;28;20048;-78
2021/03/30 04:02:17;;;;;;;8.60;3.97;;;7.30;98.20;;;;;;5093827;28;20055;-82
2021/03/30 04:05:03;;;;;;;13.48;4.63;;;7.30;98.10;;;;;;5075610;28;20028;-81
2021/03/30 04:07:52;;;;;;;9.32;6.32;;;7.20;98.40;;;;;;5076199;28;20024;-80
2021/03/30 04:10:23;;;;;;;4.15;2.20;;;7.20;98.40;;;;;;5075674;28;20036;-78
2021/03/30 04:12:49;;;;;;;7.05;4.10;;;7.70;99.90;;;;;;5076763;28;20127;-79
2021/03/30 04:15:20;;;;;;;11.95;6.75;;;7.70;97.50;;;;;;5093688;28;20024;-79
2021/03/30 04:17:46;;;;;;;11.88;6.72;;;7.60;97.50;;;;;;5075895;28;20031;-80
2021/03/30 04:20:15;;;;;;;12.70;5.70;;;7.50;97.60;;;;;;5079197;28;20111;-79
2021/03/30 04:22:42;;;;;;;10.93;5.90;;;7.40;97.90;;;;;;5093303;28;20016;-80
2021/03/30 04:25:08;;;;;;;12.50;4.35;;;7.30;98.20;;;;;;5075369;28;20035;-79
2021/03/30 04:27:34;;;;;;;9.60;4.47;;;7.30;98.40;;;;;;5074881;28;20115;-80
2021/03/30 04:30:00;;;;;;;8.23;4.97;;;7.20;98.50;;;;;;5075302;28;20119;-81
2021/03/30 04:32:26;;;;;;;12.15;4.63;;;7.20;98.70;;;;;;5074961;28;20028;-79
2021/03/30 04:34:52;;;;;;;10.70;4.70;;;7.00;98.80;;;;;;5093469;28;20028;-79
2021/03/30 04:37:17;;;;;;;12.90;5.40;;;7.00;98.80;;;;;;5074848;28;20112;-79
2021/03/30 04:39:43;;;;;;;15.77;5.50;;;7.00;99.00;;;;;;5075159;28;20487;-79
2021/03/30 04:42:08;;;;;;;11.18;5.00;;;6.90;99.10;;;;;;5075296;28;20051;-79
2021/03/30 04:44:34;;;;;;;7.85;4.88;;;6.80;99.20;;;;;;5075124;28;20370;-79
2021/03/30 04:47:00;;;;;;;8.25;5.22;;;6.80;99.30;;;;;;5093046;28;20593;-78
2021/03/30 04:49:26;;;;;;;10.32;5.72;;;6.80;99.30;;;;;;5075039;28;20137;-79
2021/03/30 04:51:51;;;;;;;8.75;4.75;;;6.80;99.20;;;;;;5075040;28;20008;-79
2021/03/30 04:54:17;;;;;;;8.95;4.10;;;6.70;99.10;;;;;;5074778;28;20028;-79
2021/03/30 04:56:43;;;;;;;10.40;3.90;;;6.80;99.10;;;;;;5075472;28;20145;-81
2021/03/30 04:59:09;;;;;;;7.50;4.13;;;6.80;99.00;;;;;;5093333;28;20028;-80
2021/03/30 05:01:34;;;;;;;10.00;4.10;;;6.70;99.00;;;;;;5075198;28;20067;-80
2021/03/30 05:04:00;;;;;;;9.05;4.88;;;6.80;99.10;;;;;;5093200;28;20032;-79
2021/03/30 05:06:26;;;;;;;13.40;4.30;;;6.70;99.10;;;;;;5093276;28;20054;-80
2021/03/30 05:08:52;;;;;;;11.95;4.80;;;6.70;99.20;;;;;;5075344;28;20024;-80
2021/03/30 05:11:17;;;;;;;9.77;4.30;;;6.80;99.60;;;;;;5075434;28;20020;-80
2021/03/30 05:13:43;;;;;;;12.18;4.07;;;6.70;99.30;;;;;;5075364;28;20043;-80
2021/03/30 05:16:09;;;;;;;9.13;3.90;;;6.80;99.30;;;;;;5074970;28;20023;-78
2021/03/30 05:18:34;;;;;;;14.15;4.88;;;6.80;99.40;;;;;;5073872;28;20424;-79
2021/03/30 05:21:00;;;;;;;9.45;4.30;;;6.80;99.30;;;;;;5074739;28;20028;-78
2021/03/30 05:23:26;;;;;;;10.40;4.53;;;6.80;99.30;;;;;;5074688;28;20024;-78
2021/03/30 05:25:51;;;;;;;10.30;4.63;;;6.90;99.30;;;;;;5074491;28;20032;-78
2021/03/30 05:28:17;;;;;;;7.80;4.72;;;7.00;99.50;;;;;;5074947;28;20538;-80
2021/03/30 05:30:42;;;;;;;12.60;4.85;;;7.10;99.50;;;;;;5092510;28;20019;-79
2021/03/30 05:33:08;;;;;;;15.07;4.68;;;7.30;99.40;;;;;;5074595;28;20201;-79
2021/03/30 05:35:34;;;;;;;11.38;5.30;;;7.40;99.10;;;;;;5074409;28;20047;-79
2021/03/30 05:37:59;;;;;;;11.05;5.38;;;7.60;98.90;;;;;;5074310;28;20418;-79
2021/03/30 05:40:25;;;;;;;13.98;6.47;;;7.70;98.70;;;;;;5074514;28;20031;-79
2021/03/30 05:42:52;;;;;;;15.45;5.50;;;7.80;98.80;;;;;;5074401;28;20463;-79
2021/03/30 05:45:20;;;;;;;9.90;5.10;;;8.00;98.70;;;;;;5074287;28;20062;-78
2021/03/30 05:47:48;;;;;;;12.75;5.30;;;8.20;98.60;;;;;;5092546;28;20019;-79
2021/03/30 05:50:17;;;;;;;11.07;4.97;;;8.30;98.00;;;;;;5092815;28;20466;-78
2021/03/30 05:55:43;;;;;;;9.63;4.82;;;8.40;97.40;;;;;;5092799;28;20031;-78
2021/03/30 05:58:09;;;;;;;8.75;4.07;;;8.50;97.00;;;;;;5071830;28;20059;-79
2021/03/30 06:00:43;;;;;;;14.98;5.30;;;8.50;97.00;;;;;;5074646;28;20111;-80
2021/03/30 06:03:12;;;;;;;15.50;5.82;;;8.60;97.00;;;;;;5074332;28;20055;-78
2021/03/30 06:05:39;;;;;;;10.88;5.45;;;8.70;96.90;;;;;;5074320;28;20016;-79
2021/03/30 06:08:05;;;;;;;20.70;5.47;;;8.80;96.70;;;;;;5074199;28;20016;-79
2021/03/30 06:10:33;;;;;;;10.50;4.90;;;8.90;96.30;;;;;;5074339;28;20111;-78
2021/03/30 06:13:00;;;;;;;13.73;5.00;;;9.00;95.80;;;;;;5074289;28;20036;-79
2021/03/30 06:15:28;;;;;;;9.98;4.75;;;9.10;95.50;;;;;;5074142;28;20021;-79
2021/03/30 06:17:55;;;;;;;11.85;4.43;;;9.10;95.50;;;;;;5073772;28;20024;-79
2021/03/30 06:20:33;;;;;;;9.93;4.30;;;9.20;95.60;;;;;;5074146;28;20470;-79
2021/03/30 06:23:01;;;;;;;10.80;4.80;;;9.30;95.40;;;;;;5073817;28;20028;-79
2021/03/30 06:25:49;;;;;;;14.95;4.90;;;9.40;95.00;;;;;;5074185;28;20021;-80
2021/03/30 06:28:20;;;;;;;20.58;6.00;;;9.60;95.10;;;;;;5075599;28;20027;-79
2021/03/30 06:31:11;;;;;;;9.20;4.10;;;9.70;94.90;;;;;;5077732;28;20461;-79
2021/03/30 06:33:55;;;;;;;11.73;4.90;;;9.80;94.50;;;;;;5077474;28;20039;-78
2021/03/30 06:36:25;;;;;;;11.18;4.85;;;9.90;94.10;;;;;;5077849;28;20027;-79
2021/03/30 06:39:01;;;;;;;16.13;9.18;;;10.00;94.20;;;;;;5077675;28;20056;-79
2021/03/30 06:46:56;;;;;;;13.98;6.18;;;10.10;94.20;;;;;;5094620;28;20115;-78
2021/03/30 06:49:23;;;;;;;10.20;6.82;;;10.10;93.80;;;;;;5057880;28;20081;-78
2021/03/30 06:51:49;;;;;;;11.88;5.10;;;10.10;93.80;;;;;;5056677;28;20375;-79
2021/03/30 06:54:15;;;;;;;10.50;4.97;;;10.70;93.40;;;;;;5077608;28;20041;-79
2021/03/30 06:56:56;;;;;;;17.15;4.85;;;11.00;91.50;;;;;;5074694;28;20037;-80
2021/03/30 06:59:23;;;;;;;11.70;4.57;;;11.00;91.10;;;;;;5078661;28;20016;-79
2021/03/30 07:01:52;;;;;;;7.03;3.65;;;11.00;90.80;;;;;;5095028;28;20067;-77
2021/03/30 07:04:18;;;;;;;8.57;3.92;;;11.10;90.00;;;;;;5095106;28;20024;-78
2021/03/30 07:06:54;;;;;;;10.32;3.83;;;11.20;90.30;;;;;;5094771;28;20553;-78
2021/03/30 07:09:23;;;;;;;9.70;3.38;;;11.40;89.20;;;;;;5094517;28;20024;-75
2021/03/30 07:11:49;;;;;;;11.45;3.55;;;11.50;90.30;;;;;;5094476;28;20016;-74
2021/03/30 07:14:15;;;;;;;6.30;3.60;;;11.70;89.10;;;;;;5073954;28;20051;-80
2021/03/30 07:16:51;;;;;;;9.23;3.95;;;11.80;88.30;;;;;;5056260;28;20021;-78
2021/03/30 07:19:23;;;;;;;7.90;4.00;;;12.00;87.30;;;;;;5074711;28;20031;-78
2021/03/30 07:22:03;;;;;;;7.43;3.60;;;12.20;86.40;;;;;;5074637;28;20132;-80
2021/03/30 07:24:39;;;;;;;7.85;3.90;;;12.40;85.80;;;;;;5057422;28;20013;-79
2021/03/30 07:27:07;;;;;;;6.57;3.50;;;12.70;83.30;;;;;;5074849;28;20023;-78
2021/03/30 07:29:46;;;;;;;11.05;3.75;;;12.90;80.90;;;;;;5074722;28;20480;-79
2021/03/30 07:32:11;;;;;;;7.22;3.75;;;13.10;79.90;;;;;;5074507;28;20108;-83
2021/03/30 07:35:03;;;;;;;5.10;3.38;;;13.30;78.80;;;;;;5074849;28;20131;-79
2021/03/30 07:37:51;;;;;;;6.60;3.80;;;13.40;77.50;;;;;;5074050;28;20398;-79
2021/03/30 07:40:18;;;;;;;7.38;3.45;;;13.60;76.40;;;;;;5041908;28;20448;-79
2021/03/30 07:42:46;;;;;;;7.97;3.00;;;13.70;75.00;;;;;;5073747;28;20028;-78
2021/03/30 07:45:14;;;;;;;9.07;4.60;;;13.80;74.90;;;;;;5055302;28;20024;-77
2021/03/30 07:47:40;;;;;;;6.13;3.25;;;14.00;73.70;;;;;;5073663;28;20071;-80
2021/03/30 07:50:11;;;;;;;7.95;3.58;;;14.20;72.30;;;;;;5074016;28;20100;-80
2021/03/30 07:52:44;;;;;;;10.95;3.53;;;14.40;71.90;;;;;;5073667;28;20032;-79
2021/03/30 07:55:17;;;;;;;8.25;3.83;;;14.60;70.60;;;;;;5055754;28;20056;-79
2021/03/30 07:57:59;;;;;;;9.32;3.72;;;14.80;66.40;;;;;;5055525;28;20028;-79
2021/03/30 08:00:31;;;;;;;6.43;2.60;;;15.00;64.80;;;;;;5055863;28;20025;-79
2021/03/30 08:03:10;;;;;;;7.47;3.15;;;15.20;61.50;;;;;;5073219;28;20040;-79
2021/03/30 08:05:36;;;;;;;8.85;2.95;;;15.40;59.70;;;;;;5055348;28;20029;-78
2021/03/30 08:08:18;;;;;;;7.50;2.88;;;15.60;58.30;;;;;;5055700;28;20063;-79
2021/03/30 08:10:48;;;;;;;6.47;3.10;;;15.70;56.30;;;;;;5073317;28;20044;-79
2021/03/30 08:13:32;;;;;;;6.22;2.45;;;15.90;54.80;;;;;;5073132;28;20032;-78
2021/03/30 08:16:09;;;;;;;9.80;3.13;;;16.00;55.50;;;;;;5055770;28;20029;-78
2021/03/30 08:18:42;;;;;;;5.22;2.60;;;16.10;51.50;;;;;;5073158;28;20024;-80
2021/03/30 08:21:10;;;;;;;8.15;2.40;;;16.30;50.60;;;;;;5073177;28;20028;-78
2021/03/30 08:23:56;;;;;;;6.25;2.00;;;16.40;50.20;;;;;;5073147;28;20103;-78
2021/03/30 08:26:27;;;;;;;5.65;2.30;;;16.50;47.50;;;;;;5055368;28;20029;-79
2021/03/30 08:29:11;;;;;;;5.85;3.13;;;16.60;46.80;;;;;;5054774;28;20028;-79
2021/03/30 08:31:53;;;;;;;14.93;7.32;;;16.80;50.80;;;;;;5053851;28;20024;-77
2021/03/30 08:34:26;;;;;;;23.67;5.97;;;16.90;56.30;;;;;;5055343;28;20047;-77
2021/03/30 08:36:54;;;;;;;7.63;3.60;;;16.90;58.30;;;;;;5072300;28;20020;-77
2021/03/30 08:39:20;;;;;;;9.10;3.42;;;17.10;53.70;;;;;;5055054;28;20028;-78
2021/03/30 08:42:03;;;;;;;7.85;3.20;;;17.30;56.20;;;;;;5072524;28;20024;-77
2021/03/30 08:45:00;;;;;;;6.53;3.67;;;17.60;51.70;;;;;;5054937;28;20020;-79
2021/03/30 08:47:36;;;;;;;7.40;3.47;;;17.80;50.60;;;;;;5054770;28;20025;-80
2021/03/30 08:50:19;;;;;;;7.53;3.17;;;18.10;49.90;;;;;;5072921;28;20512;-78
2021/03/30 08:52:46;;;;;;;2.95;1.73;;;18.20;45.50;;;;;;5054532;28;20040;-78
2021/03/30 08:55:13;;;;;;;9.27;2.63;;;18.20;40.70;;;;;;5072338;28;20085;-79
2021/03/30 08:57:46;;;;;;;7.05;2.20;;;18.20;41.30;;;;;;5059399;28;20104;-80
2021/03/30 09:00:14;;;;;;;6.07;2.08;;;18.30;41.30;;;;;;5052655;28;20029;-81
2021/03/30 09:02:40;;;;;;;6.47;2.22;;;18.40;37.10;;;;;;5036021;28;20052;-83
2021/03/30 09:05:18;;;;;;;3.65;2.40;;;18.50;38.30;;;;;;5036289;28;20021;-83
2021/03/30 09:07:46;;;;;;;12.05;2.88;;;18.60;37.60;;;;;;5036235;28;20125;-83
2021/03/30 09:10:14;;;;;;;7.38;2.78;;;18.60;37.80;;;;;;5035847;28;20021;-86
2021/03/30 09:12:40;;;;;;;7.10;2.05;;;18.80;38.60;;;;;;5036090;28;20080;-85
2021/03/30 09:15:08;;;;;;;3.33;1.77;;;18.80;36.70;;;;;;5036773;28;20404;-85
2021/03/30 09:17:34;;;;;;;5.70;1.92;;;18.90;37.10;;;;;;5036989;28;20082;-84
2021/03/30 09:20:01;;;;;;;4.97;2.10;;;18.90;37.20;;;;;;5036498;28;20629;-86
2021/03/30 09:22:34;;;;;;;5.90;2.10;;;18.90;38.50;;;;;;5036097;28;20028;-85
2021/03/30 09:25:24;;;;;;;9.45;2.50;;;18.90;37.50;;;;;;5036624;28;20116;-86
2021/03/30 09:27:49;;;;;;;5.72;2.33;;;19.00;38.60;;;;;;5036501;28;20039;-87
2021/03/30 09:30:21;;;;;;;4.57;2.15;;;19.10;38.70;;;;;;5036389;28;20111;-88
2021/03/30 09:32:48;;;;;;;6.72;1.95;;;19.20;37.30;;;;;;5036156;28;20125;-87
2021/03/30 09:35:23;;;;;;;5.43;2.20;;;19.30;35.80;;;;;;5035946;28;20047;-86
2021/03/30 09:38:01;;;;;;;5.82;1.83;;;19.30;36.20;;;;;;5053364;28;20076;-84
2021/03/30 09:40:31;;;;;;;5.03;2.28;;;19.30;36.00;;;;;;5036393;28;20032;-86
2021/03/30 09:42:58;;;;;;;8.55;2.45;;;19.30;35.90;;;;;;5036271;28;20025;-86
2021/03/30 09:45:35;;;;;;;5.78;2.08;;;19.40;36.80;;;;;;5036322;28;20025;-83
2021/03/30 09:48:05;;;;;;;2.83;1.52;;;19.60;36.60;;;;;;5035982;28;20029;-90
2021/03/30 09:50:31;;;;;;;4.72;2.15;;;19.70;35.70;;;;;;5036404;28;20029;-89
2021/03/30 09:53:06;;;;;;;3.70;1.70;;;19.80;36.40;;;;;;5036077;28;20032;-85
2021/03/30 09:55:34;;;;;;;4.82;1.90;;;19.80;36.00;;;;;;5036034;28;20049;-87
2021/03/30 09:58:10;;;;;;;3.97;1.98;;;19.80;36.20;;;;;;5036243;28;20025;-81
2021/03/30 10:00:42;;;;;;;5.28;1.83;;;19.70;36.00;;;;;;5036239;28;20025;-86
2021/03/30 10:03:10;;;;;;;4.65;1.73;;;19.80;36.00;;;;;;5036690;28;20098;-82
2021/03/30 10:05:37;;;;;;;8.70;2.80;;;19.80;38.20;;;;;;5057625;28;20048;-79
2021/03/30 10:08:03;;;;;;;4.18;1.85;;;19.90;38.00;;;;;;5057082;28;20029;-78
2021/03/30 10:10:43;;;;;;;5.03;1.75;;;20.00;36.70;;;;;;5038898;28;20025;-81
2021/03/30 10:13:31;;;;;;;4.00;2.03;;;20.10;37.50;;;;;;5056739;28;20048;-78
2021/03/30 10:15:58;;;;;;;7.68;2.30;;;20.20;36.30;;;;;;5038860;28;20469;-79
2021/03/30 10:18:26;;;;;;;5.03;1.92;;;20.20;39.60;;;;;;5039002;28;20029;-85
2021/03/30 10:20:54;;;;;;;5.00;1.85;;;20.40;35.80;;;;;;5039647;28;20029;-86
2021/03/30 10:23:37;;;;;;;4.13;2.03;;;20.40;35.40;;;;;;5039408;28;20446;-87
2021/03/30 10:26:17;;;;;;;3.35;1.80;;;20.40;34.40;;;;;;5039380;28;20044;-87
2021/03/30 10:28:53;;;;;;;8.45;2.13;;;20.40;35.60;;;;;;5039366;28;20032;-85
2021/03/30 10:32:05;;;;;;;5.70;2.20;;;20.30;35.20;;;;;;5039413;28;20029;-83
2021/03/30 10:34:33;;;;;;;4.22;2.03;;;20.40;34.80;;;;;;5031611;28;20044;-86
2021/03/30 10:37:02;;;;;;;5.65;2.25;;;20.40;35.80;;;;;;5039282;28;20044;-82
2021/03/30 10:39:30;;;;;;;2.53;1.70;;;20.40;33.60;;;;;;5039045;28;20112;-81
2021/03/30 10:42:09;;;;;;;4.18;2.08;;;20.40;34.20;;;;;;5039274;28;20388;-83
2021/03/30 10:44:44;;;;;;;6.18;1.92;;;20.50;33.60;;;;;;5038946;28;20032;-84
2021/03/30 10:47:17;;;;;;;5.05;1.58;;;20.60;34.80;;;;;;5038824;28;20033;-83
2021/03/30 10:49:44;;;;;;;4.00;1.85;;;20.70;35.60;;;;;;5056523;28;20476;-81
2021/03/30 10:52:23;;;;;;;5.38;1.30;;;20.80;34.70;;;;;;5038927;28;20052;-83
2021/03/30 10:54:51;;;;;;;5.05;1.88;;;20.90;34.80;;;;;;5038779;28;20502;-85
2021/03/30 10:57:19;;;;;;;3.17;1.63;;;20.90;34.00;;;;;;5038994;28;20396;-84
2021/03/30 10:59:45;;;;;;;5.68;1.88;;;21.00;36.00;;;;;;5038837;28;20033;-83
2021/03/30 11:02:12;;;;;;;5.95;1.88;;;21.10;34.40;;;;;;5038598;28;20045;-84
2021/03/30 11:04:39;;;;;;;4.18;1.80;;;21.00;33.80;;;;;;5039252;28;20132;-82
2021/03/30 11:07:06;;;;;;;4.45;1.67;;;21.00;33.40;;;;;;5039082;28;20503;-83
2021/03/30 11:09:32;;;;;;;2.75;1.50;;;21.00;33.30;;;;;;5056482;28;20116;-83
2021/03/30 11:11:58;;;;;;;2.60;1.38;;;21.00;35.50;;;;;;5038630;28;20083;-84
2021/03/30 11:14:24;;;;;;;3.22;1.45;;;21.20;34.90;;;;;;5037723;28;20036;-83
2021/03/30 11:16:49;;;;;;;3.97;1.50;;;21.30;34.80;;;;;;5038172;28;20049;-84
2021/03/30 11:19:16;;;;;;;3.20;1.42;;;21.30;34.10;;;;;;5038379;28;20080;-82
2021/03/30 11:21:42;;;;;;;4.15;1.40;;;21.40;33.60;;;;;;5038435;28;20411;-83
2021/03/30 11:24:13;;;;;;;6.03;1.92;;;21.30;35.00;;;;;;5038505;28;20025;-83
2021/03/30 11:26:42;;;;;;;4.15;1.77;;;21.40;34.40;;;;;;5038010;28;20112;-86
2021/03/30 11:29:10;;;;;;;4.55;1.80;;;21.50;32.90;;;;;;5056079;28;20025;-84
2021/03/30 11:34:15;;;;;;;3.65;1.42;;;21.50;32.70;;;;;;5056040;28;20039;-83
2021/03/30 11:36:42;;;;;;;5.32;1.70;;;21.50;34.10;;;;;;5037912;28;20025;-84
2021/03/30 11:39:09;;;;;;;3.58;1.40;;;21.70;33.50;;;;;;5038180;28;20404;-82
2021/03/30 11:41:35;;;;;;;4.13;1.20;;;21.80;33.40;;;;;;5038078;28;20119;-82
2021/03/30 11:44:00;;;;;;;5.18;1.65;;;21.80;32.50;;;;;;5038222;28;20067;-86
2021/03/30 11:46:26;;;;;;;3.55;1.40;;;21.70;33.30;;;;;;5038589;28;20028;-89
2021/03/30 11:48:52;;;;;;;4.90;1.50;;;21.80;33.70;;;;;;5038314;28;20025;-86
2021/03/30 11:51:17;;;;;;;4.38;1.38;;;21.80;33.40;;;;;;5037884;28;20029;-89
2021/03/30 11:53:44;;;;;;;4.75;1.60;;;21.70;32.00;;;;;;5037855;28;20086;-86
2021/03/30 11:56:11;;;;;;;3.63;1.48;;;21.80;32.80;;;;;;5037657;28;20059;-88
2021/03/30 11:58:37;;;;;;;4.55;1.30;;;21.90;33.50;;;;;;5049789;28;20817;-85
2021/03/30 12:01:06;;;;;;;5.00;1.50;;;21.90;32.20;;;;;;5057509;28;20025;-87
2021/03/30 12:03:31;;;;;;;2.72;1.20;;;22.00;33.90;;;;;;5057803;28;20032;-86
2021/03/30 12:05:57;;;;;;;9.57;1.50;;;22.20;32.70;;;;;;5057876;28;20086;-85
2021/03/30 12:08:22;;;;;;;3.55;1.42;;;22.10;32.30;;;;;;5075488;28;20021;-86
2021/03/30 12:10:48;;;;;;;4.97;1.25;;;22.10;31.90;;;;;;5057799;28;20031;-89
2021/03/30 12:13:14;;;;;;;6.28;1.30;;;22.20;31.70;;;;;;5057451;28;20167;-85
2021/03/30 12:15:39;;;;;;;6.47;1.80;;;22.20;32.70;;;;;;5057386;28;20060;-89
2021/03/30 12:18:05;;;;;;;4.53;1.33;;;22.30;31.20;;;;;;5056901;28;20026;-86
2021/03/30 12:20:31;;;;;;;3.83;1.55;;;22.30;31.00;;;;;;5057381;28;20491;-85
2021/03/30 12:22:56;;;;;;;4.47;1.45;;;22.30;32.00;;;;;;5057409;28;20025;-87
2021/03/30 12:25:22;;;;;;;15.85;1.90;;;22.30;32.50;;;;;;5059842;28;20052;-88
2021/03/30 12:27:48;;;;;;;2.45;1.40;;;22.40;32.20;;;;;;5059454;28;20031;-90
2021/03/30 12:30:14;;;;;;;3.13;1.35;;;22.30;32.10;;;;;;5062387;28;20046;-92
2021/03/30 12:32:40;;;;;;;3.13;1.33;;;22.20;30.10;;;;;;5040908;28;20025;-88
2021/03/30 12:35:06;;;;;;;3.70;1.30;;;22.10;30.90;;;;;;5058231;28;20029;-86
2021/03/30 12:37:32;;;;;;;5.57;1.35;;;22.10;32.50;;;;;;5058370;28;20021;-89
2021/03/30 12:39:57;;;;;;;3.70;1.17;;;22.10;32.30;;;;;;5062441;28;20031;-91
2021/03/30 12:42:23;;;;;;;3.60;1.17;;;22.00;31.50;;;;;;5061047;28;20031;-88
2021/03/30 12:44:48;;;;;;;6.28;1.30;;;22.00;32.60;;;;;;5060226;28;20055;-89
2021/03/30 12:47:14;;;;;;;2.60;0.90;;;22.10;32.10;;;;;;5060474;28;20032;-87
2021/03/30 12:49:40;;;;;;;5.53;1.35;;;22.20;32.40;;;;;;5059362;28;20028;-89
2021/03/30 12:52:06;;;;;;;6.35;1.30;;;22.30;32.30;;;;;;5061625;28;20021;-90
2021/03/30 12:54:31;;;;;;;4.28;1.38;;;22.40;31.70;;;;;;5059841;28;20036;-89
2021/03/30 12:56:57;;;;;;;4.75;1.50;;;22.40;32.10;;;;;;5060083;28;20027;-89
2021/03/30 12:59:23;;;;;;;4.65;1.30;;;22.40;30.70;;;;;;5062959;28;20028;-91
2021/03/30 13:01:49;;;;;;;4.22;1.20;;;22.30;30.50;;;;;;5068053;28;20127;-90
2021/03/30 13:04:15;;;;;;;4.18;1.20;;;22.30;30.90;;;;;;5069357;28;20074;-91
2021/03/30 13:06:40;;;;;;;3.25;1.33;;;22.30;31.00;;;;;;5072579;28;20391;-87
2021/03/30 13:09:06;;;;;;;3.88;1.20;;;22.30;31.20;;;;;;5077123;28;20028;-86
2021/03/30 13:11:32;;;;;;;3.65;1.27;;;22.40;31.40;;;;;;5075665;28;20024;-88
2021/03/30 13:13:58;;;;;;;4.40;1.13;;;22.60;31.70;;;;;;5076118;28;20032;-87